Аэропорт: Белгород . Белгород

ICAO: UUOB

METAR:
2018/11/19 10:00
UUOB 191000Z 08003MPS CAVOK 03/M11 Q1027 R11/010060 NOSIG
METAR:
Информация по данной станции не доступна